createdAt,value
2023-04-17T00:03:25.261Z,21.3
2023-04-17T00:13:26.596Z,21.3
2023-04-17T00:23:26.934Z,21.3
2023-04-17T00:33:28.366Z,23.4
2023-04-17T00:43:28.349Z,22.9
2023-04-17T00:53:29.318Z,23
2023-04-17T01:03:29.802Z,21.3
2023-04-17T01:13:30.256Z,21.3
2023-04-17T01:23:31.296Z,22.9
2023-04-17T01:33:31.141Z,21.1
2023-04-17T01:43:31.696Z,23.2
2023-04-17T01:53:31.981Z,21.4
2023-04-17T02:03:31.801Z,21.1
2023-04-17T02:13:32.159Z,21.4
2023-04-17T02:23:32.815Z,21.3
2023-04-17T02:33:33.174Z,21.2
2023-04-17T02:43:34.413Z,21.3
2023-04-17T02:53:34.809Z,21.3
2023-04-17T03:03:08.861Z,21.4
2023-04-17T03:13:09.552Z,21.3
2023-04-17T03:23:10.537Z,21.3
2023-04-17T03:33:11.722Z,21.3
2023-04-17T03:43:12.023Z,21.5
2023-04-17T03:53:12.579Z,22.5
2023-04-17T04:03:13.698Z,21
2023-04-17T04:13:16.434Z,20.9
2023-04-17T04:23:18.865Z,21.3
2023-04-17T04:33:20.573Z,21.4
2023-04-17T04:43:22.822Z,21.2
2023-04-17T04:53:25.576Z,21.6
2023-04-17T05:03:27.160Z,21.3
2023-04-17T05:13:27.302Z,21.3
2023-04-17T05:23:27.877Z,22.7
2023-04-17T05:33:28.469Z,21.2
2023-04-17T05:43:28.354Z,21.3
2023-04-17T05:53:27.943Z,22.7
2023-04-17T06:03:29.473Z,21.3
2023-04-17T06:13:30.636Z,21.1
2023-04-17T06:23:31.228Z,21.2
2023-04-17T06:33:31.362Z,21.4
2023-04-17T06:43:31.673Z,21.1
2023-04-17T06:53:31.956Z,21.4
2023-04-17T07:03:33.837Z,21.8
2023-04-17T07:13:36.115Z,21.6
2023-04-17T07:23:36.644Z,21.8
2023-04-17T07:33:40.723Z,23.5
2023-04-17T07:43:51.118Z,26.4
2023-04-17T07:54:02.943Z,25.6
2023-04-17T08:04:14.728Z,25.8
2023-04-17T08:14:25.713Z,25
2023-04-17T08:24:29.770Z,24.3
2023-04-17T08:34:34.877Z,22.9
2023-04-17T08:44:37.341Z,24.8
2023-04-17T08:54:39.812Z,24.1
2023-04-17T09:03:11.890Z,25.3
2023-04-17T09:13:24.548Z,26.1
2023-04-17T09:23:33.774Z,23.6
2023-04-17T09:33:43.630Z,25.1
2023-04-17T09:43:46.313Z,21.9
2023-04-17T09:53:46.190Z,22
2023-04-17T10:03:53.564Z,25.8
2023-04-17T10:14:12.317Z,27
2023-04-17T10:24:27.786Z,27.1
2023-04-17T10:34:44.573Z,27.4
2023-04-17T10:45:00.002Z,26.9
2023-04-17T10:55:18.620Z,27.7
2023-04-17T11:05:34.349Z,28.1
2023-04-17T11:15:46.134Z,26.6
2023-04-17T11:25:50.613Z,25.1
2023-04-17T11:35:57.029Z,26.3
2023-04-17T11:46:02.112Z,24.8
2023-04-17T11:56:07.872Z,26.3
2023-04-17T12:06:18.589Z,26.6
2023-04-17T12:16:29.314Z,26.7
2023-04-17T12:26:34.727Z,24.9
2023-04-17T12:36:40.580Z,27.3
2023-04-17T12:46:44.576Z,24.8
2023-04-17T12:56:48.176Z,24.3
2023-04-17T13:06:50.836Z,23.5
2023-04-17T13:16:54.062Z,25
2023-04-17T13:26:57.613Z,23.6
2023-04-17T13:37:00.372Z,23.9
2023-04-17T13:47:03.699Z,25.3
2023-04-17T13:57:06.882Z,23.1
2023-04-17T14:07:09.864Z,24.4
2023-04-17T14:17:10.903Z,22.4
2023-04-17T14:27:11.944Z,22.3
2023-04-17T14:37:13.824Z,23.7
2023-04-17T14:47:14.714Z,23.8
2023-04-17T14:57:15.903Z,21.9
2023-04-17T15:03:08.451Z,22.1
2023-04-17T15:13:10.259Z,22.1
2023-04-17T15:23:11.952Z,22.1
2023-04-17T15:33:13.516Z,24.1
2023-04-17T15:43:12.349Z,22.2
2023-04-17T15:53:14.711Z,23.7
2023-04-17T16:03:16.660Z,21.8
2023-04-17T16:13:18.900Z,21.9
2023-04-17T16:23:20.412Z,21.8
2023-04-17T16:33:23.275Z,21.9
2023-04-17T16:43:25.193Z,21.8
2023-04-17T16:53:26.723Z,21.6
2023-04-17T17:03:27.997Z,23.4
2023-04-17T17:13:28.879Z,21.6
2023-04-17T17:23:29.541Z,23.1
2023-04-17T17:33:31.966Z,23.3
2023-04-17T17:43:31.572Z,21.4
2023-04-17T17:53:32.094Z,21.6
2023-04-17T18:03:31.722Z,21.6
2023-04-17T18:13:31.412Z,21.2
2023-04-17T18:23:31.822Z,21.5
2023-04-17T18:33:32.280Z,21.4
2023-04-17T18:43:31.931Z,21.3
2023-04-17T18:53:32.165Z,21.4
2023-04-17T19:03:32.359Z,21.5
2023-04-17T19:13:32.016Z,21.4
2023-04-17T19:23:31.660Z,21.2
2023-04-17T19:33:31.830Z,21.4
2023-04-17T19:43:32.524Z,21.5
2023-04-17T19:53:32.598Z,21.4
2023-04-17T20:03:33.269Z,21.3
2023-04-17T20:13:33.152Z,21.6
2023-04-17T20:23:33.236Z,21.6
2023-04-17T20:33:33.247Z,21.3
2023-04-17T20:43:32.983Z,21.2
2023-04-17T20:53:33.519Z,21.2
2023-04-17T21:03:06.806Z,21.2
2023-04-17T21:13:06.291Z,21.1
2023-04-17T21:23:06.333Z,21.3
2023-04-17T21:33:05.826Z,21.3
2023-04-17T21:43:05.713Z,21.1
2023-04-17T21:53:06.159Z,23
2023-04-17T22:03:06.886Z,21.3
2023-04-17T22:13:08.537Z,21.3
2023-04-17T22:23:10.636Z,21.3
2023-04-17T22:33:12.826Z,21
2023-04-17T22:43:14.163Z,21.3
2023-04-17T22:53:15.590Z,21
2023-04-17T23:03:17.508Z,23
2023-04-17T23:13:18.671Z,21
2023-04-17T23:23:19.266Z,20.8
2023-04-17T23:33:19.288Z,22.8
2023-04-17T23:43:19.607Z,21.3
2023-04-17T23:53:19.577Z,20.9
